createdAt,value
2023-04-03T00:00:19.312Z,2.50
2023-04-03T00:01:19.296Z,2.80
2023-04-03T00:02:19.337Z,3.00
2023-04-03T00:03:19.300Z,3.10
2023-04-03T00:04:19.289Z,3.60
2023-04-03T00:05:19.273Z,3.10
2023-04-03T00:06:19.229Z,2.80
2023-04-03T00:07:19.228Z,3.40
2023-04-03T00:08:19.211Z,3.30
2023-04-03T00:09:19.202Z,2.80
2023-04-03T00:10:19.191Z,2.80
2023-04-03T00:11:19.201Z,3.50
2023-04-03T00:12:19.166Z,3.20
2023-04-03T00:13:19.173Z,3.00
2023-04-03T00:14:19.148Z,2.90
2023-04-03T00:15:19.139Z,2.80
2023-04-03T00:16:19.159Z,2.50
2023-04-03T00:17:19.132Z,3.20
2023-04-03T00:18:19.100Z,3.00
2023-04-03T00:19:19.091Z,3.50
2023-04-03T00:20:19.089Z,3.10
2023-04-03T00:21:19.076Z,3.40
2023-04-03T00:22:19.054Z,3.40
2023-04-03T00:23:19.051Z,2.50
2023-04-03T00:24:19.035Z,2.70
2023-04-03T00:25:19.039Z,2.70
2023-04-03T00:26:19.030Z,3.00
2023-04-03T00:27:19.004Z,3.40
2023-04-03T00:28:18.991Z,3.10
2023-04-03T00:29:18.994Z,2.90
2023-04-03T00:30:18.971Z,2.90
2023-04-03T00:31:19.008Z,2.60
2023-04-03T00:32:18.952Z,3.60
2023-04-03T00:33:18.945Z,2.90
2023-04-03T00:34:18.924Z,3.00
2023-04-03T00:35:18.946Z,2.80
2023-04-03T00:36:19.031Z,2.70
2023-04-03T00:37:18.895Z,2.70
2023-04-03T00:38:18.934Z,3.10
2023-04-03T00:39:18.876Z,3.20
2023-04-03T00:40:18.865Z,3.30
2023-04-03T00:41:18.849Z,3.20
2023-04-03T00:42:18.854Z,3.00
2023-04-03T00:43:18.840Z,3.00
2023-04-03T00:44:18.813Z,3.50
2023-04-03T00:45:18.808Z,3.50
2023-04-03T00:46:18.879Z,3.50
2023-04-03T00:47:18.802Z,3.60
2023-04-03T00:48:18.776Z,3.20
2023-04-03T00:49:18.773Z,3.00
2023-04-03T00:50:18.753Z,3.10
2023-04-03T00:51:18.817Z,2.60
2023-04-03T00:52:18.740Z,3.10
2023-04-03T00:53:18.729Z,3.00
2023-04-03T00:54:18.704Z,3.20
2023-04-03T00:55:18.707Z,3.40
2023-04-03T00:56:18.703Z,3.10
2023-04-03T00:57:18.700Z,2.90
2023-04-03T00:58:18.662Z,2.90
2023-04-03T00:59:18.669Z,3.30
2023-04-03T01:00:18.640Z,3.20
2023-04-03T01:01:18.661Z,3.20
2023-04-03T01:02:18.621Z,3.10
2023-04-03T01:03:18.658Z,3.20
2023-04-03T01:04:18.628Z,3.40
2023-04-03T01:05:18.619Z,2.80
2023-04-03T01:06:18.578Z,2.60
2023-04-03T01:07:18.576Z,3.50
2023-04-03T01:08:18.559Z,3.00
2023-04-03T01:09:18.540Z,2.80
2023-04-03T01:10:18.547Z,3.40
2023-04-03T01:11:18.524Z,2.80
2023-04-03T01:12:18.514Z,3.10
2023-04-03T01:13:18.505Z,3.10
2023-04-03T01:14:18.495Z,2.60
2023-04-03T01:15:18.491Z,3.10
2023-04-03T01:16:18.522Z,2.40
2023-04-03T01:17:18.457Z,2.80
2023-04-03T01:18:18.466Z,2.60
2023-04-03T01:19:18.449Z,2.60
2023-04-03T01:20:18.432Z,3.00
2023-04-03T01:21:18.416Z,2.70
2023-04-03T01:22:18.398Z,2.70
2023-04-03T01:23:18.396Z,3.20
2023-04-03T01:24:18.390Z,2.80
2023-04-03T01:25:18.386Z,3.10
2023-04-03T01:26:18.365Z,3.00
2023-04-03T01:27:18.343Z,3.60
2023-04-03T01:28:18.340Z,3.40
2023-04-03T01:29:18.352Z,2.90
2023-04-03T01:30:18.353Z,2.40
2023-04-03T01:31:18.348Z,3.30
2023-04-03T01:32:18.296Z,2.60
2023-04-03T01:33:18.288Z,2.80
2023-04-03T01:34:18.275Z,2.90
2023-04-03T01:35:18.259Z,3.10
2023-04-03T01:36:18.289Z,3.90
2023-04-03T01:37:18.233Z,2.90
2023-04-03T01:38:18.251Z,3.00
2023-04-03T01:39:18.259Z,3.80
2023-04-03T01:40:18.948Z,3.00
2023-04-03T01:41:18.199Z,3.90
2023-04-03T01:42:18.183Z,2.30
2023-04-03T01:43:18.168Z,3.30
2023-04-03T01:44:18.166Z,2.70
2023-04-03T01:45:18.148Z,2.70
2023-04-03T01:46:18.187Z,3.10
2023-04-03T01:47:18.149Z,3.30
2023-04-03T01:48:18.113Z,2.90
2023-04-03T01:49:18.101Z,2.90
2023-04-03T01:50:18.092Z,2.80
2023-04-03T01:51:18.085Z,3.10
2023-04-03T01:52:18.074Z,3.30
2023-04-03T01:53:18.057Z,3.00
2023-04-03T01:54:18.058Z,3.00
2023-04-03T01:55:18.039Z,3.30
2023-04-03T01:56:18.038Z,2.80
2023-04-03T01:57:18.088Z,3.10
2023-04-03T01:58:18.017Z,2.90
2023-04-03T01:59:18.014Z,2.80
2023-04-03T02:00:17.983Z,3.00
2023-04-03T02:01:18.002Z,2.30
2023-04-03T02:02:17.956Z,2.40
2023-04-03T02:03:17.949Z,2.70
2023-04-03T02:04:18.003Z,2.70
2023-04-03T02:05:17.945Z,3.60
2023-04-03T02:06:17.918Z,2.90
2023-04-03T02:07:17.920Z,3.30
2023-04-03T02:08:17.897Z,3.00
2023-04-03T02:09:17.885Z,3.30
2023-04-03T02:10:17.875Z,2.70
2023-04-03T02:11:17.860Z,3.30
2023-04-03T02:12:17.848Z,2.80
2023-04-03T02:13:17.850Z,3.00
2023-04-03T02:14:17.855Z,3.40
2023-04-03T02:15:17.815Z,3.10
2023-04-03T02:16:17.845Z,3.50
2023-04-03T02:17:17.810Z,3.10
2023-04-03T02:18:17.796Z,3.20
2023-04-03T02:19:17.774Z,3.40
2023-04-03T02:20:17.774Z,2.50
2023-04-03T02:21:17.749Z,3.10
2023-04-03T02:22:17.749Z,2.80
2023-04-03T02:23:17.726Z,3.30
2023-04-03T02:24:17.729Z,3.40
2023-04-03T02:25:17.711Z,2.90
2023-04-03T02:26:17.698Z,3.30
2023-04-03T02:27:17.678Z,3.00
2023-04-03T02:28:17.676Z,3.00
2023-04-03T02:29:17.664Z,3.10
2023-04-03T02:30:17.662Z,2.90
2023-04-03T02:31:17.676Z,3.00
2023-04-03T02:32:17.627Z,3.30
2023-04-03T02:33:17.625Z,2.80
2023-04-03T02:34:17.614Z,2.40
2023-04-03T02:35:17.591Z,2.80
2023-04-03T02:36:17.586Z,3.50
2023-04-03T02:37:17.573Z,2.90
2023-04-03T02:38:17.574Z,3.30
2023-04-03T02:39:17.552Z,3.80
2023-04-03T02:40:17.541Z,3.30
2023-04-03T02:41:17.538Z,3.20
2023-04-03T02:42:17.527Z,3.40
2023-04-03T02:43:25.082Z,3.20
2023-04-03T02:44:17.521Z,3.20
2023-04-03T02:45:17.498Z,3.30
2023-04-03T02:46:17.542Z,3.00
2023-04-03T02:47:17.478Z,3.20
2023-04-03T02:48:17.456Z,2.90
2023-04-03T02:49:17.447Z,3.20
2023-04-03T02:50:17.458Z,3.20
2023-04-03T02:51:17.435Z,3.70
2023-04-03T02:52:17.425Z,2.90
2023-04-03T02:53:17.404Z,2.80
2023-04-03T02:54:17.407Z,3.70
2023-04-03T02:55:17.379Z,3.70
2023-04-03T02:56:17.373Z,2.70
2023-04-03T02:57:17.409Z,3.60
2023-04-03T02:58:17.357Z,2.70
2023-04-03T02:59:17.332Z,3.70
2023-04-03T03:00:17.326Z,3.50
2023-04-03T03:01:17.340Z,3.20
2023-04-03T03:02:17.626Z,3.40
2023-04-03T03:03:17.295Z,3.30
2023-04-03T03:04:17.293Z,3.30
2023-04-03T03:05:17.359Z,3.10
2023-04-03T03:06:17.279Z,3.00
2023-04-03T03:07:17.246Z,3.40
2023-04-03T03:08:17.241Z,2.70
2023-04-03T03:09:17.228Z,3.10
2023-04-03T03:10:17.220Z,2.80
2023-04-03T03:11:17.217Z,2.90
2023-04-03T03:12:17.202Z,2.80
2023-04-03T03:13:17.188Z,3.00
2023-04-03T03:14:17.175Z,3.30
2023-04-03T03:15:17.158Z,3.10
2023-04-03T03:16:17.202Z,3.10
2023-04-03T03:17:17.150Z,3.60
2023-04-03T03:18:17.178Z,3.50
2023-04-03T03:19:17.129Z,2.90
2023-04-03T03:20:17.113Z,2.90
2023-04-03T03:21:17.105Z,3.80
2023-04-03T03:22:17.089Z,3.60
2023-04-03T03:23:17.084Z,3.80
2023-04-03T03:24:17.077Z,3.30
2023-04-03T03:25:17.054Z,2.70
2023-04-03T03:26:17.056Z,3.40
2023-04-03T03:27:17.039Z,3.30
2023-04-03T03:28:17.018Z,2.90
2023-04-03T03:29:17.015Z,3.20
2023-04-03T03:30:17.007Z,3.20
2023-04-03T03:31:17.071Z,2.90
2023-04-03T03:32:16.972Z,3.30
2023-04-03T03:33:16.958Z,2.70
2023-04-03T03:34:16.958Z,2.80
2023-04-03T03:35:16.934Z,3.10
2023-04-03T03:36:16.983Z,2.90
2023-04-03T03:37:16.913Z,3.50
2023-04-03T03:38:16.915Z,3.30
2023-04-03T03:39:16.894Z,2.90
2023-04-03T03:40:16.888Z,3.40
2023-04-03T03:41:16.869Z,3.00
2023-04-03T03:42:16.876Z,3.20
2023-04-03T03:43:16.854Z,3.10
2023-04-03T03:44:16.861Z,3.20
2023-04-03T03:45:16.833Z,3.00
2023-04-03T03:46:16.864Z,3.60
2023-04-03T03:47:16.830Z,3.00
2023-04-03T03:48:16.801Z,2.80
2023-04-03T03:49:16.833Z,2.80
2023-04-03T03:50:16.776Z,3.30
2023-04-03T03:51:16.766Z,3.00
2023-04-03T03:52:16.767Z,2.80
2023-04-03T03:53:16.755Z,2.70
2023-04-03T03:54:16.750Z,3.00
2023-04-03T03:55:16.727Z,2.80
2023-04-03T03:56:16.720Z,3.20
2023-04-03T03:57:16.798Z,2.90
2023-04-03T03:58:16.688Z,3.30
2023-04-03T03:59:16.683Z,3.30
2023-04-03T04:00:16.671Z,2.90
2023-04-03T04:01:16.659Z,3.10
2023-04-03T04:02:16.705Z,3.60
2023-04-03T04:03:16.712Z,2.90
2023-04-03T04:04:16.703Z,3.00
2023-04-03T04:05:16.614Z,2.80
2023-04-03T04:06:16.613Z,3.50
2023-04-03T04:07:16.625Z,3.00
2023-04-03T04:08:16.596Z,2.80
2023-04-03T04:09:16.580Z,2.30
2023-04-03T04:10:16.584Z,2.80
2023-04-03T04:11:16.593Z,3.20
2023-04-03T04:12:16.551Z,3.20
2023-04-03T04:13:16.531Z,3.40
2023-04-03T04:14:16.554Z,3.20
2023-04-03T04:15:16.511Z,3.10
2023-04-03T04:16:16.516Z,3.30
2023-04-03T04:17:16.481Z,2.90
2023-04-03T04:18:16.473Z,2.50
2023-04-03T04:19:16.472Z,3.00
2023-04-03T04:20:16.486Z,2.70
2023-04-03T04:21:16.432Z,3.40
2023-04-03T04:22:16.428Z,3.10
2023-04-03T04:23:16.411Z,3.00
2023-04-03T04:24:16.416Z,2.90
2023-04-03T04:25:16.420Z,3.30
2023-04-03T04:26:16.396Z,2.70
2023-04-03T04:27:16.365Z,3.10
2023-04-03T04:28:16.363Z,2.40
2023-04-03T04:29:16.359Z,2.90
2023-04-03T04:30:16.369Z,2.60
2023-04-03T04:31:16.348Z,2.70
2023-04-03T04:32:16.329Z,3.00
2023-04-03T04:33:16.304Z,3.20
2023-04-03T04:34:16.297Z,2.80
2023-04-03T04:35:17.004Z,2.90
2023-04-03T04:36:16.354Z,2.80
2023-04-03T04:37:16.266Z,2.80
2023-04-03T04:38:16.251Z,3.10
2023-04-03T04:39:16.235Z,3.40
2023-04-03T04:40:16.237Z,2.60
2023-04-03T04:41:16.210Z,2.70
2023-04-03T04:42:17.862Z,2.50
2023-04-03T04:43:16.192Z,2.90
2023-04-03T04:44:16.183Z,2.80
2023-04-03T04:45:16.176Z,3.10
2023-04-03T04:46:16.227Z,3.00
2023-04-03T04:47:16.163Z,2.70
2023-04-03T04:48:16.143Z,3.10
2023-04-03T04:49:16.131Z,2.90
2023-04-03T04:50:16.127Z,2.60
2023-04-03T04:51:16.106Z,3.00
2023-04-03T04:52:16.109Z,2.70
2023-04-03T04:53:16.147Z,3.40
2023-04-03T04:54:16.081Z,2.80
2023-04-03T04:55:16.072Z,3.30
2023-04-03T04:56:16.073Z,2.70
2023-04-03T04:57:16.054Z,3.20
2023-04-03T04:58:16.045Z,2.80
2023-04-03T04:59:16.016Z,2.10
2023-04-03T05:00:16.023Z,3.60
2023-04-03T05:01:16.024Z,2.80
2023-04-03T05:02:16.007Z,2.90
2023-04-03T05:03:15.981Z,3.10
2023-04-03T05:04:16.028Z,3.50
2023-04-03T05:05:15.996Z,2.60
2023-04-03T05:06:15.946Z,2.90
2023-04-03T05:07:15.931Z,3.20
2023-04-03T05:08:15.925Z,3.00
2023-04-03T05:09:15.932Z,3.10
2023-04-03T05:10:15.904Z,3.30
2023-04-03T05:11:15.913Z,3.10
2023-04-03T05:12:15.886Z,3.40
2023-04-03T05:13:15.876Z,2.60
2023-04-03T05:14:15.876Z,3.20
2023-04-03T05:15:15.851Z,2.80
2023-04-03T05:16:15.925Z,3.60
2023-04-03T05:17:15.832Z,2.50
2023-04-03T05:18:15.832Z,2.60
2023-04-03T05:19:15.802Z,2.90
2023-04-03T05:20:15.811Z,3.50
2023-04-03T05:21:15.780Z,2.80
2023-04-03T05:22:15.776Z,2.80
2023-04-03T05:23:15.773Z,2.70
2023-04-03T05:24:15.765Z,3.00
2023-04-03T05:25:15.752Z,3.00
2023-04-03T05:26:15.745Z,2.20
2023-04-03T05:27:15.745Z,3.20
2023-04-03T05:28:15.731Z,3.30
2023-04-03T05:29:15.695Z,2.60
2023-04-03T05:30:15.692Z,3.10
2023-04-03T05:31:15.734Z,3.30
2023-04-03T05:32:15.681Z,2.70
2023-04-03T05:33:15.673Z,2.90
2023-04-03T05:34:15.651Z,3.30
2023-04-03T05:35:15.637Z,3.60
2023-04-03T05:36:15.659Z,3.10
2023-04-03T05:37:15.627Z,2.50
2023-04-03T05:38:15.601Z,2.90
2023-04-03T05:39:15.589Z,3.40
2023-04-03T05:40:16.877Z,3.00
2023-04-03T05:41:15.573Z,2.40
2023-04-03T05:42:15.567Z,3.60
2023-04-03T05:43:15.586Z,3.40
2023-04-03T05:44:15.533Z,3.30
2023-04-03T05:45:15.533Z,2.30
2023-04-03T05:46:15.636Z,2.70
2023-04-03T05:47:15.513Z,2.90
2023-04-03T05:48:15.491Z,3.10
2023-04-03T05:49:15.488Z,2.80
2023-04-03T05:50:15.480Z,2.70
2023-04-03T05:51:15.472Z,3.00
2023-04-03T05:52:15.461Z,3.30
2023-04-03T05:53:15.501Z,3.20
2023-04-03T05:54:15.426Z,2.40
2023-04-03T05:55:15.418Z,2.80
2023-04-03T05:56:15.422Z,3.40
2023-04-03T05:57:15.465Z,2.50
2023-04-03T05:58:15.424Z,2.30
2023-04-03T05:59:15.376Z,3.20
2023-04-03T06:00:15.366Z,3.30
2023-04-03T06:01:15.364Z,2.80
2023-04-03T06:02:15.367Z,2.70
2023-04-03T06:03:15.531Z,2.90
2023-04-03T06:04:15.376Z,3.40
2023-04-03T06:05:15.364Z,3.60
2023-04-03T06:06:15.308Z,2.80
2023-04-03T06:07:15.312Z,2.90
2023-04-03T06:08:15.280Z,3.00
2023-04-03T06:09:15.274Z,2.90
2023-04-03T06:10:15.266Z,2.50
2023-04-03T06:11:15.261Z,3.10
2023-04-03T06:12:15.238Z,3.00
2023-04-03T06:13:15.226Z,3.10
2023-04-03T06:14:15.209Z,2.90
2023-04-03T06:15:15.210Z,3.00
2023-04-03T06:16:15.261Z,2.80
2023-04-03T06:17:15.281Z,3.10
2023-04-03T06:18:15.168Z,2.90
2023-04-03T06:19:15.158Z,2.70
2023-04-03T06:20:15.172Z,2.80
2023-04-03T06:21:15.133Z,2.50
2023-04-03T06:22:15.124Z,2.80
2023-04-03T06:23:15.125Z,2.80
2023-04-03T06:24:15.121Z,2.80
2023-04-03T06:25:15.093Z,2.80
2023-04-03T06:26:15.213Z,2.90
2023-04-03T06:27:15.081Z,2.50
2023-04-03T06:28:15.071Z,3.10
2023-04-03T06:29:15.053Z,3.10
2023-04-03T06:30:15.044Z,2.70
2023-04-03T06:31:15.050Z,3.10
2023-04-03T06:32:15.017Z,3.30
2023-04-03T06:33:15.048Z,3.10
2023-04-03T06:34:15.019Z,2.60
2023-04-03T06:35:14.984Z,2.80
2023-04-03T06:36:14.996Z,2.50
2023-04-03T06:37:14.980Z,1.90
2023-04-03T06:38:14.948Z,3.60
2023-04-03T06:39:14.958Z,3.10
2023-04-03T06:40:14.933Z,2.50
2023-04-03T06:41:14.918Z,2.60
2023-04-03T06:42:14.891Z,2.90
2023-04-03T06:43:14.853Z,2.60
2023-04-03T06:44:14.837Z,2.40
2023-04-03T06:45:15.121Z,2.60
2023-04-03T06:46:14.902Z,3.20
2023-04-03T06:47:14.861Z,3.20
2023-04-03T06:48:14.933Z,2.90
2023-04-03T06:49:14.852Z,3.20
2023-04-03T06:50:14.798Z,2.60
2023-04-03T06:51:14.805Z,3.20
2023-04-03T06:52:14.805Z,2.70
2023-04-03T06:53:14.864Z,2.90
2023-04-03T06:54:14.790Z,2.70
2023-04-03T06:55:14.730Z,3.00
2023-04-03T06:56:14.706Z,3.10
2023-04-03T06:57:14.722Z,3.10
2023-04-03T06:58:14.937Z,2.80
2023-04-03T06:59:14.690Z,2.40
2023-04-03T07:00:14.692Z,3.90
2023-04-03T07:01:14.662Z,2.70
2023-04-03T07:02:14.656Z,3.10
2023-04-03T07:03:14.625Z,3.20
2023-04-03T07:04:14.630Z,2.80
2023-04-03T07:05:14.622Z,3.20
2023-04-03T07:06:14.590Z,2.80
2023-04-03T07:07:14.588Z,4.00
2023-04-03T07:08:14.578Z,2.70
2023-04-03T07:09:14.572Z,3.60
2023-04-03T07:10:14.568Z,3.40
2023-04-03T07:11:14.537Z,4.20
2023-04-03T07:12:14.820Z,3.40
2023-04-03T07:13:14.522Z,3.80
2023-04-03T07:14:14.505Z,3.40
2023-04-03T07:15:14.508Z,3.60
2023-04-03T07:16:14.514Z,4.70
2023-04-03T07:17:14.476Z,4.60
2023-04-03T07:18:14.515Z,4.50
2023-04-03T07:19:14.458Z,4.70
2023-04-03T07:20:14.434Z,4.40
2023-04-03T07:21:14.435Z,5.20
2023-04-03T07:22:14.432Z,5.40
2023-04-03T07:23:14.409Z,5.10
2023-04-03T07:24:16.521Z,5.10
2023-04-03T07:25:14.395Z,5.20
2023-04-03T07:26:14.393Z,7.00
2023-04-03T07:27:14.361Z,5.00
2023-04-03T07:28:14.357Z,5.70
2023-04-03T07:29:14.341Z,4.40
2023-04-03T07:30:14.324Z,4.70
2023-04-03T07:31:14.389Z,5.50
2023-04-03T07:32:14.310Z,5.40
2023-04-03T07:33:14.399Z,4.60
2023-04-03T07:34:14.324Z,5.20
2023-04-03T07:35:14.285Z,6.20
2023-04-03T07:36:14.275Z,5.80
2023-04-03T07:37:14.267Z,6.90
2023-04-03T07:38:14.254Z,5.70
2023-04-03T07:39:14.237Z,5.00
2023-04-03T07:40:14.220Z,7.00
2023-04-03T07:41:14.212Z,5.10
2023-04-03T07:42:14.217Z,5.60
2023-04-03T07:43:14.194Z,6.00
2023-04-03T07:44:14.238Z,6.80
2023-04-03T07:45:14.181Z,5.60
2023-04-03T07:46:14.189Z,6.30
2023-04-03T07:47:14.149Z,6.00
2023-04-03T07:48:14.184Z,6.20
2023-04-03T07:49:14.136Z,6.60
2023-04-03T07:50:14.175Z,6.00
2023-04-03T07:51:14.109Z,6.10
2023-04-03T07:52:14.091Z,5.30
2023-04-03T07:53:14.107Z,6.20
2023-04-03T07:54:14.075Z,6.00
2023-04-03T07:55:14.092Z,5.40
2023-04-03T07:56:14.056Z,6.10
2023-04-03T07:57:14.078Z,5.60
2023-04-03T07:58:14.044Z,5.40
2023-04-03T07:59:14.033Z,5.60
2023-04-03T08:00:14.012Z,6.20
2023-04-03T08:01:14.022Z,6.90
2023-04-03T08:02:14.000Z,5.10
2023-04-03T08:03:14.103Z,5.80
2023-04-03T08:04:14.089Z,5.60
2023-04-03T08:05:13.964Z,5.90
2023-04-03T08:06:16.455Z,6.20
2023-04-03T08:07:13.937Z,5.60
2023-04-03T08:08:13.924Z,5.90
2023-04-03T08:09:13.915Z,5.40
2023-04-03T08:10:13.905Z,5.90
2023-04-03T08:11:13.929Z,7.40
2023-04-03T08:12:13.882Z,6.70
2023-04-03T08:13:13.864Z,6.10
2023-04-03T08:14:13.847Z,6.80
2023-04-03T08:15:13.855Z,6.50
2023-04-03T08:16:13.882Z,6.40
2023-04-03T08:17:13.832Z,6.30
2023-04-03T08:18:13.809Z,6.30
2023-04-03T08:19:22.342Z,6.20
2023-04-03T08:20:13.791Z,6.90
2023-04-03T08:21:13.794Z,6.60
2023-04-03T08:22:13.764Z,5.90
2023-04-03T08:23:13.758Z,6.50
2023-04-03T08:24:13.742Z,5.50
2023-04-03T08:25:13.732Z,5.00
2023-04-03T08:26:13.718Z,5.80
2023-04-03T08:27:13.718Z,6.40
2023-04-03T08:28:13.700Z,6.40
2023-04-03T08:29:13.686Z,4.90
2023-04-03T08:30:13.685Z,5.60
2023-04-03T08:31:13.718Z,5.40
2023-04-03T08:32:13.652Z,5.80
2023-04-03T08:33:13.830Z,5.40
2023-04-03T08:34:13.637Z,5.40
2023-04-03T08:35:13.651Z,6.60
2023-04-03T08:36:13.645Z,5.50
2023-04-03T08:37:13.601Z,6.30
2023-04-03T08:38:13.599Z,5.40
2023-04-03T08:39:13.588Z,6.40
2023-04-03T08:40:13.606Z,5.70
2023-04-03T08:41:13.558Z,6.70
2023-04-03T08:42:13.542Z,6.00
2023-04-03T08:43:13.537Z,5.30
2023-04-03T08:44:13.572Z,7.00
2023-04-03T08:45:13.577Z,5.90
2023-04-03T08:46:13.594Z,5.70
2023-04-03T08:47:13.552Z,6.30
2023-04-03T08:48:13.542Z,6.10
2023-04-03T08:49:13.989Z,6.50
2023-04-03T08:50:13.477Z,5.60
2023-04-03T08:51:13.460Z,5.90
2023-04-03T08:52:13.485Z,6.50
2023-04-03T08:53:13.432Z,5.70
2023-04-03T08:54:13.425Z,5.60
2023-04-03T08:55:13.425Z,5.30
2023-04-03T08:56:13.395Z,5.80
2023-04-03T08:57:13.441Z,5.20
2023-04-03T08:58:13.368Z,6.90
2023-04-03T08:59:13.362Z,6.80
2023-04-03T09:00:13.379Z,6.30
2023-04-03T09:01:13.346Z,4.90
2023-04-03T09:02:13.342Z,6.40
2023-04-03T09:03:13.427Z,5.90
2023-04-03T09:04:13.367Z,5.50
2023-04-03T09:05:13.329Z,5.40
2023-04-03T09:06:13.281Z,5.30
2023-04-03T09:07:13.278Z,4.70
2023-04-03T09:08:13.263Z,6.20
2023-04-03T09:09:13.288Z,6.50
2023-04-03T09:10:13.252Z,5.30
2023-04-03T09:11:13.229Z,6.40
2023-04-03T09:12:13.222Z,6.40
2023-04-03T09:13:13.204Z,5.50
2023-04-03T09:14:13.194Z,6.60
2023-04-03T09:15:13.195Z,5.70
2023-04-03T09:16:13.204Z,6.60
2023-04-03T09:17:13.181Z,5.30
2023-04-03T09:18:13.142Z,5.50
2023-04-03T09:19:13.141Z,5.10
2023-04-03T09:20:13.128Z,5.90
2023-04-03T09:21:13.129Z,5.50
2023-04-03T09:22:13.135Z,6.30
2023-04-03T09:23:13.105Z,6.40
2023-04-03T09:24:13.093Z,6.30
2023-04-03T09:25:13.074Z,6.30
2023-04-03T09:26:13.057Z,6.10
2023-04-03T09:27:13.118Z,6.10
2023-04-03T09:28:13.116Z,5.10
2023-04-03T09:29:13.058Z,6.60
2023-04-03T09:30:13.014Z,5.20
2023-04-03T09:31:13.009Z,4.90
2023-04-03T09:32:12.986Z,5.30
2023-04-03T09:33:13.042Z,6.30
2023-04-03T09:34:12.972Z,5.00
2023-04-03T09:35:20.741Z,4.90
2023-04-03T09:36:12.973Z,4.90
2023-04-03T09:37:12.939Z,6.60
2023-04-03T09:38:12.940Z,5.70
2023-04-03T09:39:12.914Z,5.50
2023-04-03T09:40:12.899Z,6.70
2023-04-03T09:41:12.901Z,5.30
2023-04-03T09:42:12.895Z,5.30
2023-04-03T09:43:12.872Z,5.00
2023-04-03T09:44:12.872Z,5.10
2023-04-03T09:45:12.855Z,6.50
2023-04-03T09:46:12.869Z,6.50
2023-04-03T09:47:12.864Z,5.60
2023-04-03T09:48:16.149Z,5.20
2023-04-03T09:49:12.883Z,6.30
2023-04-03T09:50:12.796Z,5.60
2023-04-03T09:51:12.787Z,4.50
2023-04-03T09:52:12.771Z,5.60
2023-04-03T09:53:12.768Z,6.00
2023-04-03T09:54:12.747Z,5.70
2023-04-03T09:55:12.738Z,5.40
2023-04-03T09:56:12.788Z,4.60
2023-04-03T09:57:12.938Z,5.10
2023-04-03T09:58:12.760Z,4.50
2023-04-03T09:59:12.696Z,5.60
2023-04-03T10:00:12.685Z,5.40
2023-04-03T10:01:12.726Z,5.90
2023-04-03T10:02:12.716Z,5.80
2023-04-03T10:03:12.770Z,5.70
2023-04-03T10:04:12.722Z,4.50
2023-04-03T10:05:12.695Z,4.80
2023-04-03T10:06:12.697Z,4.60
2023-04-03T10:07:12.654Z,4.50
2023-04-03T10:08:12.657Z,6.00
2023-04-03T10:09:12.653Z,5.20
2023-04-03T10:10:12.574Z,5.70
2023-04-03T10:11:12.610Z,5.60
2023-04-03T10:12:12.599Z,4.30
2023-04-03T10:13:20.232Z,5.10
2023-04-03T10:14:12.599Z,5.00
2023-04-03T10:15:12.563Z,5.00
2023-04-03T10:16:12.569Z,5.20
2023-04-03T10:17:12.542Z,5.80
2023-04-03T10:18:23.731Z,4.80
2023-04-03T10:19:12.530Z,5.40
2023-04-03T10:20:12.523Z,5.00
2023-04-03T10:21:21.316Z,5.60
2023-04-03T10:22:12.498Z,5.20
2023-04-03T10:23:12.470Z,5.20
2023-04-03T10:24:12.471Z,5.70
2023-04-03T10:25:12.480Z,4.80
2023-04-03T10:26:14.572Z,4.40
2023-04-03T10:27:12.434Z,4.80
2023-04-03T10:28:12.423Z,4.50
2023-04-03T10:29:12.408Z,5.50
2023-04-03T10:30:12.416Z,4.50
2023-04-03T10:31:12.532Z,5.30
2023-04-03T10:32:12.382Z,5.10
2023-04-03T10:33:12.392Z,5.20
2023-04-03T10:34:12.357Z,4.40
2023-04-03T10:35:12.346Z,5.30
2023-04-03T10:36:12.361Z,4.00
2023-04-03T10:37:12.326Z,5.60
2023-04-03T10:38:12.321Z,5.30
2023-04-03T10:39:12.300Z,5.10
2023-04-03T10:40:12.281Z,5.70
2023-04-03T10:41:12.270Z,5.40
2023-04-03T10:42:17.240Z,5.00
2023-04-03T10:43:12.256Z,4.40
2023-04-03T10:45:21.434Z,4.70
2023-04-03T10:46:22.497Z,4.50
2023-04-03T10:47:22.383Z,5.30
2023-04-03T10:48:22.339Z,4.80
2023-04-03T10:49:22.365Z,6.30
2023-04-03T10:50:22.349Z,5.40
2023-04-03T10:51:22.334Z,4.50
2023-04-03T10:52:22.329Z,6.50
2023-04-03T10:53:22.326Z,5.10
2023-04-03T10:54:22.245Z,4.60
2023-04-03T10:55:22.293Z,5.10
2023-04-03T10:56:22.283Z,5.20
2023-04-03T10:57:22.308Z,5.60
2023-04-03T10:58:22.256Z,5.60
2023-04-03T10:59:22.240Z,6.40
2023-04-03T11:00:22.197Z,5.20
2023-04-03T11:01:22.274Z,5.90
2023-04-03T11:02:22.400Z,5.60
2023-04-03T11:03:22.265Z,6.00
2023-04-03T11:04:22.200Z,5.50
2023-04-03T11:05:22.191Z,5.40
2023-04-03T11:06:22.164Z,6.20
2023-04-03T11:07:22.161Z,5.30
2023-04-03T11:08:22.178Z,5.90
2023-04-03T11:09:22.134Z,5.80
2023-04-03T11:10:22.134Z,5.10
2023-04-03T11:11:22.110Z,4.90
2023-04-03T11:12:22.108Z,6.40
2023-04-03T11:13:22.108Z,5.50
2023-04-03T11:14:22.081Z,5.50
2023-04-03T11:15:22.067Z,5.70
2023-04-03T11:16:22.087Z,5.70
2023-04-03T11:17:22.048Z,5.00
2023-04-03T11:18:22.038Z,5.50
2023-04-03T11:19:22.036Z,5.80
2023-04-03T11:20:22.085Z,6.00
2023-04-03T11:21:22.011Z,5.40
2023-04-03T11:22:22.001Z,5.60
2023-04-03T11:23:21.981Z,5.80
2023-04-03T11:24:21.967Z,5.30
2023-04-03T11:25:22.169Z,5.50
2023-04-03T11:26:22.166Z,5.60
2023-04-03T11:27:21.984Z,5.60
2023-04-03T11:28:21.924Z,5.60
2023-04-03T11:29:34.468Z,5.10
2023-04-03T11:30:21.931Z,5.10
2023-04-03T11:31:22.003Z,4.90
2023-04-03T11:32:21.890Z,5.40
2023-04-03T11:33:21.867Z,5.80
2023-04-03T11:34:21.871Z,5.50
2023-04-03T11:35:21.865Z,5.70
2023-04-03T11:36:26.944Z,5.80
2023-04-03T11:37:21.832Z,4.70
2023-04-03T11:38:21.816Z,5.60
2023-04-03T11:39:21.799Z,6.00
2023-04-03T11:40:21.793Z,5.80
2023-04-03T11:41:21.791Z,5.20
2023-04-03T11:42:21.803Z,4.50
2023-04-03T11:43:21.771Z,4.60
2023-04-03T11:44:21.749Z,5.30
2023-04-03T11:45:21.738Z,5.70
2023-04-03T11:46:21.799Z,4.90
2023-04-03T11:47:21.829Z,5.10
2023-04-03T11:48:25.136Z,5.60
2023-04-03T11:49:21.692Z,6.00
2023-04-03T11:50:21.687Z,5.40
2023-04-03T11:51:21.721Z,5.40
2023-04-03T11:52:21.663Z,4.80
2023-04-03T11:53:21.657Z,5.20
2023-04-03T11:54:21.642Z,6.00
2023-04-03T11:55:21.625Z,5.10
2023-04-03T11:56:21.626Z,5.00
2023-04-03T11:57:21.648Z,5.40
2023-04-03T11:58:21.593Z,5.30
2023-04-03T11:59:21.581Z,5.20
2023-04-03T12:00:21.600Z,5.00
2023-04-03T12:01:21.564Z,5.30
2023-04-03T12:02:21.605Z,5.00
2023-04-03T12:03:21.620Z,5.00
2023-04-03T12:04:21.685Z,5.10
2023-04-03T12:05:21.519Z,6.10
2023-04-03T12:06:21.510Z,4.80
2023-04-03T12:07:21.490Z,5.00
2023-04-03T12:08:21.479Z,5.10
2023-04-03T12:09:21.477Z,4.40
2023-04-03T12:10:31.756Z,5.70
2023-04-03T12:11:21.443Z,4.80
2023-04-03T12:12:21.443Z,4.80
2023-04-03T12:13:21.422Z,4.60
2023-04-03T12:14:21.433Z,5.40
2023-04-03T12:15:21.404Z,5.50
2023-04-03T12:16:21.421Z,5.70
2023-04-03T12:17:21.384Z,5.60
2023-04-03T12:18:21.389Z,4.40
2023-04-03T12:19:24.289Z,4.70
2023-04-03T12:20:21.363Z,4.80
2023-04-03T12:21:21.333Z,5.00
2023-04-03T12:22:21.323Z,4.80
2023-04-03T12:23:21.316Z,5.00
2023-04-03T12:24:21.305Z,5.20
2023-04-03T12:25:21.285Z,4.30
2023-04-03T12:26:21.283Z,4.50
2023-04-03T12:27:21.265Z,4.00
2023-04-03T12:28:21.220Z,5.00
2023-04-03T12:29:21.244Z,6.60
2023-04-03T12:30:21.246Z,5.50
2023-04-03T12:31:21.272Z,6.20
2023-04-03T12:32:21.232Z,5.80
2023-04-03T12:33:21.204Z,4.30
2023-04-03T12:34:21.316Z,5.70
2023-04-03T12:35:21.176Z,5.60
2023-04-03T12:36:21.228Z,5.50
2023-04-03T12:37:21.164Z,4.50
2023-04-03T12:38:21.161Z,5.80
2023-04-03T12:39:21.141Z,4.70
2023-04-03T12:40:21.137Z,5.20
2023-04-03T12:41:21.127Z,5.10
2023-04-03T12:42:21.110Z,5.30
2023-04-03T12:43:21.121Z,5.50
2023-04-03T12:44:21.097Z,4.60
2023-04-03T12:45:21.086Z,5.60
2023-04-03T12:46:21.178Z,5.90
2023-04-03T12:47:21.062Z,5.20
2023-04-03T12:48:21.043Z,5.00
2023-04-03T12:49:21.045Z,4.70
2023-04-03T12:50:21.023Z,4.60
2023-04-03T12:51:21.011Z,5.10
2023-04-03T12:52:21.013Z,4.90
2023-04-03T12:53:20.998Z,5.10
2023-04-03T12:54:20.987Z,4.80
2023-04-03T12:55:20.978Z,5.20
2023-04-03T12:56:20.964Z,5.10
2023-04-03T12:57:21.604Z,6.50
2023-04-03T12:58:20.938Z,5.00
2023-04-03T12:59:20.935Z,5.40
2023-04-03T13:00:20.925Z,6.10
2023-04-03T13:01:20.935Z,5.50
2023-04-03T13:02:20.897Z,4.40
2023-04-03T13:03:20.955Z,5.50
2023-04-03T13:04:20.906Z,5.60
2023-04-03T13:05:20.861Z,5.40
2023-04-03T13:06:20.861Z,5.30
2023-04-03T13:07:20.841Z,4.80
2023-04-03T13:08:20.848Z,5.30
2023-04-03T13:09:20.816Z,4.60
2023-04-03T13:10:20.827Z,5.00
2023-04-03T13:11:20.799Z,4.80
2023-04-03T13:12:20.785Z,4.20
2023-04-03T13:13:20.771Z,5.60
2023-04-03T13:14:20.914Z,5.00
2023-04-03T13:15:20.752Z,5.20
2023-04-03T13:16:20.841Z,4.90
2023-04-03T13:17:20.756Z,4.40
2023-04-03T13:18:20.718Z,5.60
2023-04-03T13:19:20.705Z,5.80